レイキャビク/ケフラヴィーク の空港の天気 - METARとTAF

ケフラヴィーク国際空港 ( BIKF / KEF ) - アイスランド ケプラヴィーク
飛行場実況気象(Metar)
観測時間04/26 11:00 GMT (04/26 11:00 UTC)
風向・風速北 5m/s
視程4000m
天気現象弱い雨 弱い雪
少しの雲 雲底高度 90m
全天の8割程度の雲 雲底高度 340m
全天を覆う雲 雲底高度 460m
気温1℃
湿度100%
気圧1001hPa
METARBIKF 261100Z 36010KT 4000 -RASN FEW003 BKN011 OVC015 01/01 Q1001
過去の天気等 Google飛行場航空写真 Wunderground天気予報

過去48時間のMETAR

飛行場予報(TAF)
発表時間: 4/26 09:07 GMT (4/26 09:07 UTC)
予報対象時間: 26日9時 GMT ~ 27日9時 GMT
風向・風速東南東 4m/s
視程10km以上
天気現象弱い雨
少しの雲 雲底高度 300m
全天の8割程度の雲 雲底高度 460m
全天を覆う雲 雲底高度 1,070m
26日9時 GMT ~ 27日4時 GMT に一時的に
視程2,500m
天気現象霧雨雨
全天の8割程度の雲 雲底高度 240m
全天を覆う雲 雲底高度 460m
26日20時 GMT ~ 26日23時 GMT に徐々に
風向・風速西北西 8m/s
TAF AMD BIKF 260907Z 2609/2709 12008KT 9999 -RA FEW010 BKN015 OVC035 TX06/2615Z TN02/2703Z
TEMPO 2609/2704 2500 DZRA BKN008 OVC015
BECMG 2620/2623 30016KT